createdAt,value
2022-08-28T00:02:07.374Z,97830.63
2022-08-28T00:04:55.794Z,97829.91
2022-08-28T00:07:47.866Z,97818.06
2022-08-28T00:10:39.871Z,97827.16
2022-08-28T00:13:28.436Z,97822.81
2022-08-28T00:16:18.180Z,97819.56
2022-08-28T00:19:07.401Z,97825.09
2022-08-28T00:21:55.706Z,97815.09
2022-08-28T00:24:45.886Z,97806.81
2022-08-28T00:27:51.520Z,97811.81
2022-08-28T00:30:42.360Z,97806.91
2022-08-28T00:33:33.915Z,97812.09
2022-08-28T00:36:22.321Z,97806.44
2022-08-28T00:39:11.118Z,97812.84
2022-08-28T00:42:00.872Z,97809.06
2022-08-28T00:44:49.564Z,97800.91
2022-08-28T00:47:39.285Z,97801.34
2022-08-28T00:50:30.343Z,97791.94
2022-08-28T00:53:18.826Z,97794.88
2022-08-28T00:56:13.357Z,97796.44
2022-08-28T00:59:11.502Z,97799.47
2022-08-28T01:02:00.672Z,97802.09
2022-08-28T01:04:50.790Z,97812.53
2022-08-28T01:07:40.298Z,97804.91
2022-08-28T01:10:31.771Z,97796.88
2022-08-28T01:13:20.351Z,97792.72
2022-08-28T01:16:10.441Z,97801.72
2022-08-28T01:19:00.496Z,97801.34
2022-08-28T01:21:56.053Z,97799.44
2022-08-28T01:24:46.345Z,97795.69
2022-08-28T01:27:34.921Z,97798.47
2022-08-28T01:30:25.610Z,97799.59
2022-08-28T01:33:14.595Z,97804.44
2022-08-28T01:36:03.227Z,97803.88
2022-08-28T01:38:57.551Z,97804.63
2022-08-28T01:41:51.954Z,97808.56
2022-08-28T01:44:40.244Z,97813.97
2022-08-28T01:47:28.548Z,97810.41
2022-08-28T01:50:20.547Z,97817.53
2022-08-28T01:53:12.347Z,97816.97
2022-08-28T01:56:02.319Z,97814.53
2022-08-28T01:58:54.215Z,97816.00
2022-08-28T02:01:43.746Z,97815.84
2022-08-28T02:04:32.228Z,97815.47
2022-08-28T02:07:20.914Z,97819.25
2022-08-28T02:10:12.022Z,97823.72
2022-08-28T02:13:01.436Z,97824.28
2022-08-28T02:15:52.021Z,97834.03
2022-08-28T02:18:40.389Z,97829.56
2022-08-28T02:21:28.785Z,97833.69
2022-08-28T02:24:17.933Z,97834.97
2022-08-28T02:27:07.374Z,97829.19
2022-08-28T02:29:56.010Z,97838.16
2022-08-28T02:32:46.267Z,97841.91
2022-08-28T02:35:34.735Z,97831.25
2022-08-28T02:38:23.800Z,97829.56
2022-08-28T02:41:13.095Z,97832.00
2022-08-28T02:44:01.452Z,97835.38
2022-08-28T02:46:49.812Z,97840.81
2022-08-28T02:49:39.540Z,97842.09
2022-08-28T02:52:27.848Z,97841.91
2022-08-28T02:55:18.752Z,97843.44
2022-08-28T02:58:09.729Z,97850.16
2022-08-28T03:00:58.263Z,97849.56
2022-08-28T03:03:47.488Z,97836.28
2022-08-28T03:06:37.238Z,97839.28
2022-08-28T03:09:25.540Z,97845.63
2022-08-28T03:12:14.556Z,97843.56
2022-08-28T03:15:03.424Z,97853.47
2022-08-28T03:17:51.829Z,97851.91
2022-08-28T03:20:40.411Z,97835.34
2022-08-28T03:23:30.424Z,97832.75
2022-08-28T03:26:21.144Z,97834.25
2022-08-28T03:29:09.412Z,97838.72
2022-08-28T03:31:58.202Z,97835.34
2022-08-28T03:34:46.840Z,97838.91
2022-08-28T03:37:35.832Z,97846.97
2022-08-28T03:40:25.974Z,97838.75
2022-08-28T03:43:16.291Z,97842.84
2022-08-28T03:46:07.596Z,97843.78
2022-08-28T03:48:56.648Z,97850.69
2022-08-28T03:51:45.154Z,97857.81
2022-08-28T03:54:33.393Z,97862.28
2022-08-28T03:57:24.104Z,97861.34
2022-08-28T04:00:14.273Z,97859.69
2022-08-28T04:03:02.616Z,97876.88
2022-08-28T04:05:51.880Z,97888.47
2022-08-28T04:08:40.439Z,97888.66
2022-08-28T04:11:29.029Z,97887.84
2022-08-28T04:14:18.751Z,97890.66
2022-08-28T04:17:08.453Z,97897.38
2022-08-28T04:19:57.475Z,97891.63
2022-08-28T04:22:45.727Z,97894.97
2022-08-28T04:25:34.581Z,97895.19
2022-08-28T04:28:23.231Z,97902.69
2022-08-28T04:31:13.489Z,97903.25
2022-08-28T04:34:02.967Z,97904.19
2022-08-28T04:36:52.395Z,97896.88
2022-08-28T04:39:40.663Z,97895.56
2022-08-28T04:42:29.201Z,97894.66
2022-08-28T04:45:17.619Z,97891.47
2022-08-28T04:48:10.507Z,97896.16
2022-08-28T04:51:01.967Z,97905.13
2022-08-28T04:53:50.365Z,97898.41
2022-08-28T04:56:41.471Z,97908.28
2022-08-28T04:59:30.670Z,97908.13
2022-08-28T05:02:19.023Z,97908.28
2022-08-28T05:05:09.584Z,97906.25
2022-08-28T05:07:57.955Z,97904.03
2022-08-28T05:10:47.145Z,97898.72
2022-08-28T05:13:35.525Z,97905.69
2022-08-28T05:16:24.282Z,97899.69
2022-08-28T05:19:13.599Z,97913.13
2022-08-28T05:22:03.283Z,97902.06
2022-08-28T05:24:51.666Z,97906.00
2022-08-28T05:27:40.826Z,97913.69
2022-08-28T05:30:29.237Z,97912.38
2022-08-28T05:33:17.634Z,97919.44
2022-08-28T05:36:07.629Z,97927.47
2022-08-28T05:38:59.049Z,97926.31
2022-08-28T05:41:47.422Z,97923.25
2022-08-28T05:44:35.839Z,97922.88
2022-08-28T05:47:24.087Z,97920.31
2022-08-28T05:50:13.705Z,97911.22
2022-08-28T05:53:02.664Z,97922.13
2022-08-28T05:55:52.753Z,97910.22
2022-08-28T05:58:41.458Z,97914.84
2022-08-28T06:01:31.412Z,97909.97
2022-08-28T06:04:23.425Z,97920.47
2022-08-28T06:07:13.805Z,97922.00
2022-08-28T06:10:02.308Z,97915.63
2022-08-28T06:12:51.932Z,97917.81
2022-08-28T06:15:43.098Z,97920.59
2022-08-28T06:18:31.573Z,97926.59
2022-08-28T06:21:20.895Z,97922.34
2022-08-28T06:24:09.814Z,97919.81
2022-08-28T06:26:59.483Z,97912.09
2022-08-28T06:29:49.100Z,97911.88
2022-08-28T06:32:37.421Z,97909.63
2022-08-28T06:35:25.770Z,97912.22
2022-08-28T06:38:14.347Z,97900.41
2022-08-28T06:41:02.862Z,97906.44
2022-08-28T06:43:51.288Z,97906.59
2022-08-28T06:46:42.096Z,97909.63
2022-08-28T06:49:30.473Z,97909.00
2022-08-28T06:52:18.861Z,97915.03
2022-08-28T06:55:08.238Z,97917.13
2022-08-28T06:57:56.575Z,97917.16
2022-08-28T07:00:44.880Z,97919.75
2022-08-28T07:03:35.133Z,97916.16
2022-08-28T07:06:25.213Z,97912.19
2022-08-28T07:09:13.653Z,97913.34
2022-08-28T07:12:02.527Z,97914.16
2022-08-28T07:14:50.800Z,97908.53
2022-08-28T07:17:39.267Z,97906.75
2022-08-28T07:20:28.955Z,97904.94
2022-08-28T07:23:17.233Z,97906.28
2022-08-28T07:26:07.471Z,97903.94
2022-08-28T07:29:00.687Z,97900.72
2022-08-28T07:31:59.660Z,97907.09
2022-08-28T07:34:47.917Z,97903.00
2022-08-28T07:37:40.923Z,97904.50
2022-08-28T07:40:29.685Z,97906.84
2022-08-28T07:43:36.068Z,97905.94
2022-08-28T07:46:25.699Z,97910.00
2022-08-28T07:49:17.201Z,97910.00
2022-08-28T07:52:07.187Z,97909.09
2022-08-28T07:54:57.547Z,97914.13
2022-08-28T07:57:46.860Z,97913.16
2022-08-28T08:00:35.187Z,97915.72
2022-08-28T08:03:23.833Z,97912.22
2022-08-28T08:06:13.787Z,97901.81
2022-08-28T08:09:02.161Z,97915.19
2022-08-28T08:11:51.817Z,97908.41
2022-08-28T08:14:41.233Z,97915.63
2022-08-28T08:17:30.271Z,97907.00
2022-08-28T08:20:18.777Z,97922.34
2022-08-28T08:23:07.074Z,97923.47
2022-08-28T08:25:57.189Z,97919.69
2022-08-28T08:28:47.201Z,97918.88
2022-08-28T08:31:35.612Z,97921.44
2022-08-28T08:34:24.011Z,97918.34
2022-08-28T08:37:13.678Z,97925.41
2022-08-28T08:40:02.070Z,97926.38
2022-08-28T08:42:55.696Z,97927.56
2022-08-28T08:45:47.544Z,97928.25
2022-08-28T08:48:39.766Z,97927.97
2022-08-28T08:51:40.717Z,97940.13
2022-08-28T08:54:29.947Z,97934.84
2022-08-28T08:57:18.668Z,97942.72
2022-08-28T09:00:14.983Z,97944.66
2022-08-28T09:03:08.194Z,97948.97
2022-08-28T09:06:01.181Z,97946.16
2022-08-28T09:08:57.723Z,97949.88
2022-08-28T09:11:56.501Z,97948.53
2022-08-28T09:14:54.518Z,97943.75
2022-08-28T09:17:48.711Z,97947.75
2022-08-28T09:20:38.603Z,97961.63
2022-08-28T09:23:29.832Z,97959.91
2022-08-28T09:26:24.579Z,97959.16
2022-08-28T09:29:18.583Z,97961.81
2022-08-28T09:32:25.073Z,97966.53
2022-08-28T09:35:16.675Z,97969.41
2022-08-28T09:38:19.183Z,97970.38
2022-08-28T09:41:29.117Z,97973.69
2022-08-28T09:44:17.895Z,97974.78
2022-08-28T09:47:06.390Z,97972.31
2022-08-28T09:49:54.746Z,97975.78
2022-08-28T09:52:43.216Z,97971.88
2022-08-28T09:55:39.714Z,97975.56
2022-08-28T09:58:35.176Z,97965.34
2022-08-28T10:01:53.378Z,97965.75
2022-08-28T10:04:52.422Z,97965.31
2022-08-28T10:07:49.098Z,97965.06
2022-08-28T10:10:46.591Z,97961.91
2022-08-28T10:13:45.690Z,97961.50
2022-08-28T10:16:43.786Z,97972.78
2022-08-28T10:19:45.176Z,97971.16
2022-08-28T10:22:44.906Z,97971.34
2022-08-28T10:25:48.359Z,97966.41
2022-08-28T10:28:48.080Z,97965.50
2022-08-28T10:31:44.066Z,97972.06
2022-08-28T10:34:42.181Z,97975.41
2022-08-28T10:37:43.407Z,97971.28
2022-08-28T10:40:37.700Z,97975.69
2022-08-28T10:43:32.847Z,97975.13
2022-08-28T10:46:27.229Z,97969.41
2022-08-28T10:49:24.696Z,97967.41
2022-08-28T10:52:17.330Z,97967.66
2022-08-28T10:55:09.358Z,97964.06
2022-08-28T10:58:02.561Z,97973.25
2022-08-28T11:00:53.532Z,97970.16
2022-08-28T11:03:46.183Z,97970.16
2022-08-28T11:06:40.754Z,97968.19
2022-08-28T11:09:32.918Z,97959.53
2022-08-28T11:12:37.889Z,97966.72
2022-08-28T11:15:49.510Z,97966.28
2022-08-28T11:19:08.288Z,97958.13
2022-08-28T11:22:02.927Z,97960.09
2022-08-28T11:25:04.368Z,97959.00
2022-08-28T11:28:16.317Z,97956.34
2022-08-28T11:31:31.663Z,97954.50
2022-08-28T11:34:59.453Z,97959.09
2022-08-28T11:37:49.936Z,97946.16
2022-08-28T11:40:58.066Z,97951.38
2022-08-28T11:43:47.589Z,97946.22
2022-08-28T11:46:37.385Z,97947.38
2022-08-28T11:49:46.303Z,97939.72
2022-08-28T11:52:54.369Z,97957.44
2022-08-28T11:56:07.993Z,97946.31
2022-08-28T11:59:08.165Z,97948.16
2022-08-28T12:02:18.766Z,97950.00
2022-08-28T12:05:10.953Z,97953.75
2022-08-28T12:08:03.237Z,97961.66
2022-08-28T12:10:58.007Z,97963.38
2022-08-28T12:13:50.449Z,97971.44
2022-08-28T12:17:11.807Z,97964.97
2022-08-28T12:20:09.193Z,97968.59
2022-08-28T12:23:00.258Z,97963.59
2022-08-28T12:25:50.668Z,97960.25
2022-08-28T12:28:45.888Z,97954.75
2022-08-28T12:32:12.750Z,97955.13
2022-08-28T12:35:22.045Z,97952.63
2022-08-28T12:38:18.558Z,97949.34
2022-08-28T12:41:17.013Z,97950.75
2022-08-28T12:44:09.094Z,97941.53
2022-08-28T12:46:58.247Z,97937.59
2022-08-28T12:49:47.162Z,97939.63
2022-08-28T12:52:35.575Z,97942.81
2022-08-28T12:55:25.363Z,97932.88
2022-08-28T12:58:30.687Z,97936.56
2022-08-28T13:01:29.063Z,97926.00
2022-08-28T13:04:29.293Z,97921.63
2022-08-28T13:07:24.449Z,97922.34
2022-08-28T13:10:21.819Z,97910.50
2022-08-28T13:13:19.586Z,97902.22
2022-08-28T13:16:11.299Z,97894.22
2022-08-28T13:19:25.131Z,97885.91
2022-08-28T13:22:35.478Z,97884.81
2022-08-28T13:25:27.330Z,97894.50
2022-08-28T13:28:17.790Z,97895.59
2022-08-28T13:31:06.791Z,97890.59
2022-08-28T13:34:09.899Z,97902.34
2022-08-28T13:37:01.266Z,97903.97
2022-08-28T13:39:49.681Z,97911.41
2022-08-28T13:42:38.280Z,97903.81
2022-08-28T13:45:26.735Z,97917.09
2022-08-28T13:48:17.130Z,97924.16
2022-08-28T13:51:20.171Z,97920.88
2022-08-28T13:54:09.608Z,97913.25
2022-08-28T13:57:01.125Z,97906.06
2022-08-28T13:59:53.550Z,97908.78
2022-08-28T14:03:01.564Z,97893.03
2022-08-28T14:05:49.812Z,97897.31
2022-08-28T14:08:40.049Z,97892.97
2022-08-28T14:11:28.357Z,97911.34
2022-08-28T14:14:17.882Z,97919.19
2022-08-28T14:17:06.758Z,97907.41
2022-08-28T14:19:55.245Z,97915.56
2022-08-28T14:22:43.645Z,97900.63
2022-08-28T14:25:37.169Z,97904.75
2022-08-28T14:28:27.415Z,97916.06
2022-08-28T14:31:15.807Z,97912.25
2022-08-28T14:34:05.429Z,97916.56
2022-08-28T14:36:55.421Z,97925.44
2022-08-28T14:39:43.823Z,97932.38
2022-08-28T14:42:33.587Z,97942.59
2022-08-28T14:45:21.913Z,97929.50
2022-08-28T14:48:10.412Z,97926.44
2022-08-28T14:50:58.739Z,97925.91
2022-08-28T14:53:47.141Z,97928.16
2022-08-28T14:56:36.185Z,97931.78
2022-08-28T14:59:28.853Z,97931.88
2022-08-28T15:02:17.179Z,97931.91
2022-08-28T15:05:06.077Z,97939.28
2022-08-28T15:07:54.480Z,97940.41
2022-08-28T15:10:44.455Z,97952.22
2022-08-28T15:13:32.747Z,97955.66
2022-08-28T15:16:29.919Z,97981.59
2022-08-28T15:19:19.702Z,97987.13
2022-08-28T15:22:08.050Z,97995.84
2022-08-28T15:24:56.415Z,97991.75
2022-08-28T15:27:44.775Z,97993.25
2022-08-28T15:30:34.729Z,97994.16
2022-08-28T15:33:24.383Z,97987.78
2022-08-28T15:36:12.889Z,98010.50
2022-08-28T15:39:19.148Z,98016.09
2022-08-28T15:42:08.882Z,98000.69
2022-08-28T15:44:57.672Z,98021.81
2022-08-28T15:47:46.196Z,98012.88
2022-08-28T15:50:36.404Z,98010.47
2022-08-28T15:53:25.295Z,98014.41
2022-08-28T15:56:15.347Z,98045.19
2022-08-28T15:59:03.761Z,98029.22
2022-08-28T16:01:52.484Z,98032.84
2022-08-28T16:04:40.995Z,98024.31
2022-08-28T16:07:30.721Z,98036.66
2022-08-28T16:10:20.343Z,98034.25
2022-08-28T16:13:08.783Z,98033.06
2022-08-28T16:15:57.181Z,98037.69
2022-08-28T16:18:45.730Z,98036.00
2022-08-28T16:21:34.597Z,98036.88
2022-08-28T16:24:24.229Z,98032.59
2022-08-28T16:27:15.409Z,98029.94
2022-08-28T16:30:05.291Z,98028.66
2022-08-28T16:32:54.201Z,98020.66
2022-08-28T16:35:49.477Z,98019.63
2022-08-28T16:38:45.632Z,98018.34
2022-08-28T16:41:35.251Z,98025.34
2022-08-28T16:44:25.534Z,98005.91
2022-08-28T16:47:14.339Z,98008.25
2022-08-28T16:50:07.260Z,97994.94
2022-08-28T16:52:55.626Z,97989.78
2022-08-28T16:55:46.995Z,97993.84
2022-08-28T16:58:36.874Z,97994.50
2022-08-28T17:01:25.543Z,98000.41
2022-08-28T17:04:13.958Z,97998.41
2022-08-28T17:07:02.760Z,98001.41
2022-08-28T17:09:51.107Z,97997.16
2022-08-28T17:12:39.493Z,97991.19
2022-08-28T17:15:29.427Z,97994.41
2022-08-28T17:18:17.894Z,97999.38
2022-08-28T17:21:24.462Z,98004.09
2022-08-28T17:24:13.655Z,97994.34
2022-08-28T17:27:05.426Z,98006.81
2022-08-28T17:29:54.299Z,98006.25
2022-08-28T17:32:44.058Z,98005.00
2022-08-28T17:35:32.398Z,98018.09
2022-08-28T17:38:30.402Z,98016.09
2022-08-28T17:41:18.758Z,98023.25
2022-08-28T17:44:07.384Z,98034.13
2022-08-28T17:46:55.661Z,98029.13
2022-08-28T17:49:45.617Z,98028.66
2022-08-28T17:52:35.025Z,98030.78
2022-08-28T17:55:23.367Z,98039.03
2022-08-28T17:58:11.886Z,98034.84
2022-08-28T18:01:00.398Z,98036.66
2022-08-28T18:03:53.464Z,98037.47
2022-08-28T18:06:43.479Z,98033.31
2022-08-28T18:09:31.912Z,98047.63
2022-08-28T18:12:20.948Z,98044.09
2022-08-28T18:15:12.304Z,98047.25
2022-08-28T18:18:01.529Z,98048.88
2022-08-28T18:20:50.049Z,98057.22
2022-08-28T18:23:43.253Z,98058.81
2022-08-28T18:26:32.092Z,98056.72
2022-08-28T18:29:20.357Z,98057.28
2022-08-28T18:32:08.999Z,98063.38
2022-08-28T18:34:57.389Z,98067.09
2022-08-28T18:37:45.687Z,98077.69
2022-08-28T18:40:39.599Z,98070.03
2022-08-28T18:43:28.212Z,98062.59
2022-08-28T18:46:16.645Z,98066.25
2022-08-28T18:49:05.045Z,98065.34
2022-08-28T18:51:53.821Z,98070.53
2022-08-28T18:54:42.133Z,98067.59
2022-08-28T18:57:33.594Z,98069.38
2022-08-28T19:00:22.061Z,98087.97
2022-08-28T19:03:11.001Z,98081.66
2022-08-28T19:05:59.402Z,98077.22
2022-08-28T19:08:47.797Z,98080.22
2022-08-28T19:11:36.421Z,98085.41
2022-08-28T19:14:26.443Z,98083.81
2022-08-28T19:17:19.150Z,98080.13
2022-08-28T19:20:12.986Z,98085.22
2022-08-28T19:23:02.126Z,98089.25
2022-08-28T19:25:50.519Z,98085.56
2022-08-28T19:28:39.019Z,98093.09
2022-08-28T19:31:29.722Z,98095.00
2022-08-28T19:34:18.385Z,98085.84
2022-08-28T19:37:06.946Z,98094.06
2022-08-28T19:39:56.399Z,98087.84
2022-08-28T19:42:46.286Z,98093.25
2022-08-28T19:45:35.090Z,98093.88
2022-08-28T19:48:25.073Z,98096.72
2022-08-28T19:51:22.294Z,98103.09
2022-08-28T19:54:14.304Z,98100.63
2022-08-28T19:57:02.624Z,98099.50
2022-08-28T19:59:50.884Z,98094.75
2022-08-28T20:02:39.271Z,98099.78
2022-08-28T20:05:29.190Z,98095.66
2022-08-28T20:08:18.089Z,98097.00
2022-08-28T20:11:06.422Z,98088.56
2022-08-28T20:13:56.549Z,98095.94
2022-08-28T20:16:47.218Z,98090.09
2022-08-28T20:19:36.011Z,98087.09
2022-08-28T20:22:25.798Z,98097.75
2022-08-28T20:25:15.610Z,98095.84
2022-08-28T20:28:04.940Z,98091.25
2022-08-28T20:30:53.318Z,98099.41
2022-08-28T20:33:42.473Z,98095.47
2022-08-28T20:36:30.693Z,98103.22
2022-08-28T20:39:21.632Z,98100.75
2022-08-28T20:42:11.806Z,98094.81
2022-08-28T20:45:00.600Z,98101.53
2022-08-28T20:47:49.718Z,98098.06
2022-08-28T20:50:37.953Z,98099.00
2022-08-28T20:53:37.150Z,98102.22
2022-08-28T20:56:27.583Z,98091.72
2022-08-28T20:59:16.243Z,98106.34
2022-08-28T21:02:05.964Z,98101.06
2022-08-28T21:04:55.410Z,98108.63
2022-08-28T21:07:43.958Z,98112.69
2022-08-28T21:10:32.594Z,98106.25
2022-08-28T21:13:22.295Z,98110.53
2022-08-28T21:16:10.642Z,98120.84
2022-08-28T21:19:15.333Z,98115.81
2022-08-28T21:22:04.553Z,98116.00
2022-08-28T21:24:53.574Z,98116.53
2022-08-28T21:27:41.980Z,98121.97
2022-08-28T21:30:31.892Z,98129.19
2022-08-28T21:33:20.262Z,98121.16
2022-08-28T21:36:10.164Z,98117.69
2022-08-28T21:38:58.804Z,98121.72
2022-08-28T21:41:47.598Z,98116.31
2022-08-28T21:44:35.957Z,98135.91
2022-08-28T21:47:26.569Z,98136.13
2022-08-28T21:50:16.809Z,98135.28
2022-08-28T21:53:05.310Z,98129.47
2022-08-28T21:55:55.819Z,98129.88
2022-08-28T21:58:44.325Z,98129.03
2022-08-28T22:01:32.908Z,98131.16
2022-08-28T22:04:22.689Z,98129.34
2022-08-28T22:07:12.053Z,98121.69
2022-08-28T22:10:00.430Z,98132.13
2022-08-28T22:12:48.770Z,98129.69
2022-08-28T22:15:37.104Z,98125.06
2022-08-28T22:18:31.984Z,98129.34
2022-08-28T22:21:59.715Z,98125.25
2022-08-28T22:24:47.953Z,98129.50
2022-08-28T22:27:36.261Z,98135.31
2022-08-28T22:30:24.685Z,98128.44
2022-08-28T22:33:13.878Z,98139.22
2022-08-28T22:36:02.248Z,98138.00
2022-08-28T22:38:53.370Z,98144.84
2022-08-28T22:41:42.187Z,98146.00
2022-08-28T22:44:31.230Z,98148.19
2022-08-28T22:47:19.805Z,98153.88
2022-08-28T22:50:09.337Z,98155.44
2022-08-28T22:52:57.678Z,98146.31
2022-08-28T22:55:47.345Z,98147.59
2022-08-28T22:58:36.167Z,98152.31
2022-08-28T23:01:26.173Z,98161.09
2022-08-28T23:04:14.543Z,98153.44
2022-08-28T23:07:02.861Z,98161.09
2022-08-28T23:09:51.305Z,98158.16
2022-08-28T23:12:41.552Z,98169.81
2022-08-28T23:15:30.101Z,98176.00
2022-08-28T23:18:18.991Z,98173.72
2022-08-28T23:21:08.801Z,98174.97
2022-08-28T23:23:58.387Z,98180.41
2022-08-28T23:26:47.037Z,98188.91
2022-08-28T23:29:36.774Z,98182.88
2022-08-28T23:32:25.171Z,98171.63
2022-08-28T23:35:15.459Z,98173.31
2022-08-28T23:38:04.379Z,98177.41
2022-08-28T23:40:54.188Z,98180.25
2022-08-28T23:43:42.427Z,98181.81
2022-08-28T23:46:32.180Z,98183.84
2022-08-28T23:49:24.919Z,98180.50
2022-08-28T23:52:15.102Z,98174.22
2022-08-28T23:55:03.899Z,98174.00
2022-08-28T23:57:52.495Z,98177.09
